createdAt,value
2018-08-08T00:01:43.912Z,26.60
2018-08-08T00:06:37.296Z,26.40
2018-08-08T00:11:30.648Z,26.30
2018-08-08T00:16:24.016Z,26.40
2018-08-08T00:21:17.351Z,26.40
2018-08-08T00:26:10.793Z,26.30
2018-08-08T00:31:04.252Z,26.00
2018-08-08T00:35:57.609Z,25.90
2018-08-08T00:40:51.020Z,26.00
2018-08-08T00:45:44.389Z,26.10
2018-08-08T00:50:37.784Z,26.00
2018-08-08T00:55:31.218Z,26.00
2018-08-08T01:00:24.549Z,26.00
2018-08-08T01:05:17.962Z,26.00
2018-08-08T01:10:11.545Z,25.90
2018-08-08T01:15:07.493Z,26.20
2018-08-08T01:20:00.944Z,26.60
2018-08-08T01:24:55.476Z,26.60
2018-08-08T01:29:48.822Z,26.60
2018-08-08T01:34:42.772Z,26.60
2018-08-08T01:39:36.140Z,26.60
2018-08-08T01:44:29.484Z,26.50
2018-08-08T01:49:22.905Z,26.40
2018-08-08T01:54:16.276Z,26.40
2018-08-08T01:59:09.680Z,26.40
2018-08-08T02:04:03.209Z,26.40
2018-08-08T02:08:56.583Z,26.40
2018-08-08T02:13:50.085Z,26.40
2018-08-08T02:18:43.700Z,26.40
2018-08-08T02:23:37.148Z,26.40
2018-08-08T02:28:30.522Z,26.40
2018-08-08T02:33:23.893Z,26.30
2018-08-08T02:38:17.322Z,26.20
2018-08-08T02:43:10.721Z,26.20
2018-08-08T02:48:04.182Z,26.20
2018-08-08T02:52:57.577Z,26.40
2018-08-08T02:57:50.940Z,26.40
2018-08-08T03:02:44.601Z,26.40
2018-08-08T03:07:38.342Z,26.30
2018-08-08T03:12:32.519Z,26.30
2018-08-08T03:17:25.904Z,26.20
2018-08-08T03:22:19.320Z,26.10
2018-08-08T03:27:12.760Z,26.00
2018-08-08T03:32:06.893Z,26.00
2018-08-08T03:37:00.296Z,26.10
2018-08-08T03:41:53.768Z,26.10
2018-08-08T03:46:47.168Z,26.10
2018-08-08T03:51:40.585Z,26.00
2018-08-08T03:56:33.971Z,25.80
2018-08-08T04:01:27.390Z,25.40
2018-08-08T04:06:20.770Z,25.00
2018-08-08T04:11:14.108Z,24.70
2018-08-08T04:16:07.504Z,24.50
2018-08-08T04:21:00.886Z,24.50
2018-08-08T04:25:54.221Z,24.50
2018-08-08T04:30:47.616Z,24.40
2018-08-08T04:35:41.015Z,24.40
2018-08-08T04:40:34.418Z,23.90
2018-08-08T04:45:27.831Z,23.20
2018-08-08T04:50:21.591Z,22.60
2018-08-08T04:55:16.382Z,22.00
2018-08-08T05:00:12.372Z,21.60
2018-08-08T05:05:08.440Z,21.30
2018-08-08T05:10:04.093Z,21.00
2018-08-08T05:14:57.479Z,20.90
2018-08-08T05:19:51.034Z,20.90
2018-08-08T05:24:44.659Z,21.00
2018-08-08T05:29:39.358Z,21.20
2018-08-08T05:34:33.843Z,21.10
2018-08-08T05:39:27.544Z,20.90
2018-08-08T05:44:21.004Z,20.90
2018-08-08T05:49:14.937Z,20.90
2018-08-08T05:54:10.512Z,21.20
2018-08-08T05:59:05.129Z,21.30
2018-08-08T06:13:24.515Z,21.60
2018-08-08T06:18:18.720Z,21.70
2018-08-08T06:23:12.717Z,22.00
2018-08-08T06:28:06.992Z,22.30
2018-08-08T06:33:01.068Z,22.60
2018-08-08T06:37:55.242Z,22.70
2018-08-08T06:42:54.148Z,22.70
2018-08-08T06:47:47.596Z,22.80
2018-08-08T06:52:41.376Z,23.10
2018-08-08T06:57:34.986Z,23.30
2018-08-08T07:02:28.342Z,24.10
2018-08-08T07:07:21.709Z,24.90
2018-08-08T07:12:15.176Z,25.00
2018-08-08T07:17:09.509Z,25.60
2018-08-08T07:22:03.923Z,26.10
2018-08-08T07:26:59.073Z,26.70
2018-08-08T07:31:52.754Z,26.50
2018-08-08T07:36:46.192Z,27.50
2018-08-08T07:41:39.923Z,30.10
2018-08-08T07:46:33.988Z,30.40
2018-08-08T07:51:27.609Z,31.10
2018-08-08T07:56:21.379Z,30.50
2018-08-08T08:01:14.781Z,30.00
2018-08-08T08:06:08.447Z,30.40
2018-08-08T08:11:02.070Z,30.60
2018-08-08T08:15:55.837Z,30.70
2018-08-08T08:20:49.325Z,30.30
2018-08-08T08:25:43.822Z,31.00
2018-08-08T08:30:37.372Z,32.80
2018-08-08T08:35:31.104Z,35.10
2018-08-08T08:40:24.537Z,35.60
2018-08-08T08:45:17.897Z,37.80
2018-08-08T08:50:11.291Z,37.80
2018-08-08T08:55:06.089Z,37.00
2018-08-08T08:59:59.926Z,36.90
2018-08-08T09:04:54.387Z,35.50
2018-08-08T09:09:47.749Z,35.30
2018-08-08T09:14:41.127Z,36.60
2018-08-08T09:19:34.500Z,36.30
2018-08-08T09:24:27.869Z,34.00
2018-08-08T09:29:21.208Z,32.90
2018-08-08T09:34:14.586Z,31.50
2018-08-08T09:39:09.264Z,30.90
2018-08-08T09:44:02.696Z,32.10
2018-08-08T09:48:56.008Z,34.50
2018-08-08T09:55:13.855Z,34.60
2018-08-08T10:00:07.350Z,33.80
2018-08-08T10:05:00.789Z,32.80
2018-08-08T10:09:59.136Z,32.00
2018-08-08T10:14:56.271Z,31.50
2018-08-08T10:19:50.401Z,31.50
2018-08-08T10:24:43.978Z,31.60
2018-08-08T10:29:42.283Z,30.70
2018-08-08T10:34:35.650Z,29.60
2018-08-08T10:39:33.313Z,30.10
2018-08-08T10:44:32.089Z,30.90
2018-08-08T10:49:27.947Z,31.60
2018-08-08T10:54:21.385Z,32.40
2018-08-08T10:59:14.726Z,32.60
2018-08-08T11:04:08.138Z,32.80
2018-08-08T11:09:01.540Z,32.60
2018-08-08T11:13:54.879Z,31.80
2018-08-08T11:18:48.270Z,31.00
2018-08-08T11:23:41.660Z,31.10
2018-08-08T11:28:35.055Z,30.90
2018-08-08T11:33:28.424Z,30.70
2018-08-08T11:38:21.821Z,30.30
2018-08-08T11:43:15.205Z,30.30
2018-08-08T11:48:08.657Z,30.20
2018-08-08T11:53:02.944Z,30.10
2018-08-08T11:57:56.348Z,30.70
2018-08-08T12:02:49.752Z,31.30
2018-08-08T12:07:43.146Z,31.60
2018-08-08T12:12:36.494Z,32.00
2018-08-08T12:17:29.919Z,32.00
2018-08-08T12:22:23.340Z,32.10
2018-08-08T12:27:16.767Z,31.80
2018-08-08T12:32:10.114Z,31.70
2018-08-08T12:37:03.640Z,31.60
2018-08-08T12:41:57.004Z,31.80
2018-08-08T12:46:50.365Z,31.60
2018-08-08T12:51:43.716Z,31.10
2018-08-08T12:56:37.213Z,31.10
2018-08-08T13:01:30.571Z,31.20
2018-08-08T13:06:24.025Z,31.00
2018-08-08T13:11:17.598Z,31.00
2018-08-08T13:16:11.052Z,31.30
2018-08-08T13:21:04.464Z,31.20
2018-08-08T13:25:57.812Z,31.30
2018-08-08T13:30:51.163Z,31.30
2018-08-08T13:35:44.538Z,31.60
2018-08-08T13:40:37.897Z,31.60
2018-08-08T13:45:31.289Z,31.40
2018-08-08T13:50:24.636Z,31.60
2018-08-08T13:55:17.991Z,31.50
2018-08-08T14:00:11.499Z,31.10
2018-08-08T14:05:05.367Z,31.20
2018-08-08T14:10:00.847Z,31.30
2018-08-08T14:14:54.240Z,31.10
2018-08-08T14:19:47.584Z,30.70
2018-08-08T14:24:41.059Z,29.80
2018-08-08T14:29:37.909Z,30.10
2018-08-08T14:34:37.702Z,30.00
2018-08-08T14:39:38.795Z,30.00
2018-08-08T14:44:33.002Z,30.00
2018-08-08T14:49:27.218Z,29.80
2018-08-08T14:54:21.347Z,30.10
2018-08-08T14:59:15.579Z,30.10
2018-08-08T15:04:10.276Z,30.10
2018-08-08T15:09:09.697Z,30.00
2018-08-08T15:14:14.911Z,30.40
2018-08-08T15:19:10.911Z,30.40
2018-08-08T15:24:04.778Z,29.90
2018-08-08T15:28:58.170Z,29.70
2018-08-08T15:33:51.614Z,29.60
2018-08-08T15:38:46.397Z,29.60
2018-08-08T15:43:40.045Z,29.20
2018-08-08T15:48:33.711Z,29.10
2018-08-08T15:53:27.294Z,28.70
2018-08-08T15:58:20.705Z,28.60
2018-08-08T16:03:14.304Z,28.30
2018-08-08T16:08:07.905Z,28.60
2018-08-08T16:13:01.547Z,28.60
2018-08-08T16:17:54.920Z,28.90
2018-08-08T16:22:48.293Z,28.90
2018-08-08T16:27:41.652Z,28.90
2018-08-08T16:32:35.113Z,28.50
2018-08-08T16:37:28.481Z,28.40
2018-08-08T16:42:21.847Z,28.20
2018-08-08T16:47:15.211Z,28.10
2018-08-08T16:52:08.582Z,27.70
2018-08-08T16:57:01.967Z,27.60
2018-08-08T17:01:55.334Z,27.40
2018-08-08T17:06:48.846Z,27.20
2018-08-08T17:11:42.222Z,27.10
2018-08-08T17:16:37.086Z,27.20
2018-08-08T17:21:30.436Z,27.20
2018-08-08T17:26:23.783Z,27.00
2018-08-08T17:31:17.403Z,26.70
2018-08-08T17:36:10.788Z,26.50
2018-08-08T17:41:04.260Z,26.40
2018-08-08T17:45:57.619Z,26.40
2018-08-08T17:50:50.996Z,26.30
2018-08-08T17:55:44.423Z,26.10
2018-08-08T18:00:37.831Z,25.90
2018-08-08T18:05:31.240Z,25.90
2018-08-08T18:10:24.604Z,25.80
2018-08-08T18:15:17.980Z,25.60
2018-08-08T18:20:11.454Z,25.40
2018-08-08T18:25:04.939Z,25.30
2018-08-08T18:29:58.283Z,25.20
2018-08-08T18:34:51.648Z,25.00
2018-08-08T18:39:45.010Z,24.90
2018-08-08T18:44:38.371Z,24.70
2018-08-08T18:49:31.687Z,24.60
2018-08-08T18:54:25.102Z,24.40
2018-08-08T18:59:18.466Z,24.20
2018-08-08T19:04:11.809Z,24.10
2018-08-08T19:09:07.506Z,24.00
2018-08-08T19:14:01.799Z,23.90
2018-08-08T19:18:55.200Z,23.90
2018-08-08T19:23:48.528Z,23.80
2018-08-08T19:28:41.882Z,23.80
2018-08-08T19:33:35.370Z,23.70
2018-08-08T19:38:28.747Z,23.70
2018-08-08T19:43:22.133Z,23.50
2018-08-08T19:48:15.535Z,23.30
2018-08-08T19:53:08.978Z,23.20
2018-08-08T19:58:02.453Z,23.20
2018-08-08T20:02:56.002Z,23.20
2018-08-08T20:07:49.828Z,23.10
2018-08-08T20:12:43.331Z,23.10
2018-08-08T20:17:36.721Z,23.20
2018-08-08T20:22:30.094Z,23.30
2018-08-08T20:27:23.547Z,23.40
2018-08-08T20:32:17.255Z,23.40
2018-08-08T20:37:10.670Z,23.20
2018-08-08T20:42:04.231Z,23.00
2018-08-08T20:46:57.725Z,22.80
2018-08-08T20:51:51.243Z,22.70
2018-08-08T20:56:44.661Z,22.50
2018-08-08T21:01:38.098Z,22.40
2018-08-08T21:06:31.505Z,22.30
2018-08-08T21:11:24.905Z,22.20
2018-08-08T21:16:18.345Z,22.10
2018-08-08T21:21:11.757Z,22.00
2018-08-08T21:26:05.109Z,22.00
2018-08-08T21:30:58.530Z,21.90
2018-08-08T21:35:51.902Z,22.00
2018-08-08T21:40:45.265Z,22.10
2018-08-08T21:45:38.623Z,22.30
2018-08-08T21:50:31.959Z,22.50
2018-08-08T21:55:42.401Z,22.50
2018-08-08T22:00:52.735Z,22.50
2018-08-08T22:07:00.648Z,22.40
2018-08-08T22:12:11.257Z,22.20
2018-08-08T22:17:21.859Z,21.90
2018-08-08T22:22:15.243Z,21.70
2018-08-08T22:27:08.669Z,21.50
2018-08-08T22:32:02.344Z,21.40
2018-08-08T22:36:55.769Z,21.30
2018-08-08T22:41:49.178Z,21.20
2018-08-08T22:46:42.542Z,21.10
2018-08-08T22:51:35.904Z,21.10
2018-08-08T22:56:29.941Z,21.00
2018-08-08T23:01:23.351Z,21.00
2018-08-08T23:06:16.735Z,20.90
2018-08-08T23:11:13.688Z,20.70
2018-08-08T23:16:07.211Z,20.60
2018-08-08T23:21:00.584Z,20.60
2018-08-08T23:25:53.917Z,20.60
2018-08-08T23:30:47.278Z,20.50
2018-08-08T23:35:40.907Z,20.50
2018-08-08T23:40:34.286Z,20.40
2018-08-08T23:45:27.662Z,20.30
2018-08-08T23:50:21.069Z,20.30
2018-08-08T23:55:14.442Z,20.30
